Capitol Logistics 34




PANC
Ted Stevens Anchorage International Airport
Anchorage, Alaska
ZSPD
Shanghai Pudong International Airport
Shanghai,

Route Details

Aircraft Information
Group: Trans-Pacific Ops
Types: B744,B763,MD11
Route Data
Demand: D
Distance: 3740nm
Duration: 9h 09m
Recm'd Route: NODLE R220 NEONN G349 MARCC G583 BESAT G583 IRKAN G583 BUMEN G583 MVE Y116 AWE Y116 CHE Y12 TAPPI Z16 MIHOU Y14 DGC V28 FUE A593 DUMET DUM01A
Origin Wx: PANC 270453Z 25007KT 10SM FEW050 BKN250 17/02 A2984 RMK AO2 SLP106 T01720017
Dest. Wx: ZSPD 270530Z 08005MPS 050V110 CAVOK 28/19 Q1006 NOSIG
Notes:

Financial History
Total Freight: 58,740lbs
Average Load: 14,685lbs/flt
Fuel Used: 629,514lbs
Avg. Fuel Used: 157,379lbs/flt
Fuel Expense: $301,439
Avg. Fuel Expense: $75,360
Avg. Fuel Cost: $0.43/lbs
Total Gross Income: $111,453
Pilot Pay: $996
Total Expenses: $36,756
Total Revenue: $-236,377
Average Revenue: $27,863.27